Terminal Aerodrome Forecast
Issued by NWS Wakefield, VA

Home | Current Version | Previous Version | Text Only | Print | Product List | Glossary On
Versions: 1 2 3 4 5 6 7 8 9 10 11 12 13 14 15 16 17
825
FTUS41 KAKQ 281447 AAC
TAFECG
TAF AMD
KECG 281447Z 2815/2912 18005KT P6SM VCSH BKN015
      TEMPO 2815/2817 1SM RA BR BKN010
     FM281800 20008KT 3SM RA BR SCT040 OVC080
     FM282300 18009KT 3SM RA SCT030 OVC050
     FM291000 24008KT 3SM RA BR OVC030=

USA.gov is the U.S. government's official web portal to all federal, state and local government web resources and services.